createdAt,value
2018-06-20T00:01:09.912Z,2.40
2018-06-20T00:03:38.169Z,2.10
2018-06-20T00:06:06.362Z,2.20
2018-06-20T00:08:38.609Z,1.60
2018-06-20T00:11:07.004Z,1.90
2018-06-20T00:13:35.290Z,1.80
2018-06-20T00:16:03.860Z,1.80
2018-06-20T00:18:31.889Z,2.27
2018-06-20T00:21:00.114Z,2.22
2018-06-20T00:23:28.074Z,2.20
2018-06-20T00:25:56.345Z,1.95
2018-06-20T00:28:24.639Z,2.00
2018-06-20T00:30:52.908Z,2.17
2018-06-20T00:33:21.229Z,2.05
2018-06-20T00:35:49.462Z,2.17
2018-06-20T00:38:17.929Z,2.03
2018-06-20T00:40:46.220Z,1.90
2018-06-20T00:43:14.170Z,2.17
2018-06-20T00:45:42.468Z,2.00
2018-06-20T00:48:10.641Z,2.02
2018-06-20T00:50:39.189Z,2.70
2018-06-20T00:53:07.325Z,1.90
2018-06-20T00:55:40.906Z,1.92
2018-06-20T00:58:09.181Z,2.33
2018-06-20T01:00:37.601Z,2.00
2018-06-20T01:03:06.543Z,2.10
2018-06-20T01:05:35.479Z,2.20
2018-06-20T01:08:04.137Z,2.00
2018-06-20T01:10:33.433Z,2.30
2018-06-20T01:13:01.441Z,2.70
2018-06-20T01:15:29.376Z,2.30
2018-06-20T01:17:59.377Z,2.52
2018-06-20T01:20:27.430Z,2.20
2018-06-20T01:22:55.557Z,2.10
2018-06-20T01:25:24.368Z,2.20
2018-06-20T01:27:52.686Z,2.60
2018-06-20T01:30:21.806Z,2.30
2018-06-20T01:32:49.906Z,2.20
2018-06-20T01:35:18.664Z,2.20
2018-06-20T01:37:46.953Z,2.30
2018-06-20T01:40:14.999Z,3.00
2018-06-20T01:42:43.493Z,2.65
2018-06-20T01:45:12.177Z,2.45
2018-06-20T01:47:40.625Z,2.20
2018-06-20T01:50:08.667Z,2.50
2018-06-20T01:52:36.718Z,2.55
2018-06-20T01:55:05.325Z,2.70
2018-06-20T01:57:33.671Z,2.70
2018-06-20T02:00:02.124Z,2.70
2018-06-20T02:02:30.549Z,2.70
2018-06-20T02:04:58.926Z,2.85
2018-06-20T02:07:27.902Z,2.50
2018-06-20T02:09:56.199Z,2.67
2018-06-20T02:12:24.354Z,2.73
2018-06-20T02:14:52.652Z,2.55
2018-06-20T02:17:20.801Z,2.40
2018-06-20T02:19:49.187Z,2.67
2018-06-20T02:22:17.182Z,2.52
2018-06-20T02:24:45.329Z,2.60
2018-06-20T02:27:13.513Z,2.62
2018-06-20T02:29:41.848Z,2.70
2018-06-20T02:32:10.145Z,2.40
2018-06-20T02:34:38.475Z,2.83
2018-06-20T02:37:07.132Z,2.90
2018-06-20T02:39:35.404Z,3.02
2018-06-20T02:42:03.564Z,2.50
2018-06-20T02:44:31.871Z,3.20
2018-06-20T02:46:59.937Z,3.00
2018-06-20T02:49:28.038Z,2.90
2018-06-20T02:51:56.092Z,3.20
2018-06-20T02:54:24.317Z,2.80
2018-06-20T02:56:52.996Z,3.15
2018-06-20T02:59:21.690Z,2.55
2018-06-20T03:01:50.112Z,2.98
2018-06-20T03:04:18.271Z,2.77
2018-06-20T03:06:46.471Z,2.90
2018-06-20T03:09:21.832Z,2.60
2018-06-20T03:11:50.023Z,2.70
2018-06-20T03:14:18.368Z,3.20
2018-06-20T03:16:46.825Z,2.90
2018-06-20T03:19:16.554Z,3.20
2018-06-20T03:21:45.288Z,3.27
2018-06-20T03:24:13.503Z,3.50
2018-06-20T03:26:42.102Z,3.60
2018-06-20T03:29:10.186Z,3.77
2018-06-20T03:31:38.535Z,4.30
2018-06-20T03:34:06.605Z,6.20
2018-06-20T03:36:34.913Z,8.03
2018-06-20T03:39:03.711Z,6.60
2018-06-20T03:41:32.046Z,8.40
2018-06-20T03:44:00.324Z,9.20
2018-06-20T03:46:28.630Z,8.18
2018-06-20T03:48:56.739Z,8.78
2018-06-20T03:51:25.025Z,10.67
2018-06-20T03:53:53.829Z,14.35
2018-06-20T03:56:22.870Z,19.50
2018-06-20T03:58:51.274Z,21.40
2018-06-20T04:01:19.693Z,21.25
2018-06-20T04:03:48.187Z,18.70
2018-06-20T04:06:16.934Z,19.85
2018-06-20T04:08:45.138Z,19.40
2018-06-20T04:11:13.358Z,17.32
2018-06-20T04:13:41.605Z,9.70
2018-06-20T04:16:09.792Z,10.40
2018-06-20T04:18:40.499Z,9.03
2018-06-20T04:21:10.225Z,5.08
2018-06-20T04:23:39.013Z,4.20
2018-06-20T04:26:08.317Z,4.50
2018-06-20T04:28:37.214Z,3.90
2018-06-20T04:31:06.361Z,3.62
2018-06-20T04:33:35.848Z,3.50
2018-06-20T04:36:04.337Z,3.08
2018-06-20T04:38:32.562Z,2.72
2018-06-20T04:41:01.076Z,2.70
2018-06-20T04:43:29.926Z,2.60
2018-06-20T04:45:58.516Z,2.92
2018-06-20T04:48:26.732Z,2.90
2018-06-20T04:50:55.575Z,2.80
2018-06-20T04:53:24.103Z,2.53
2018-06-20T04:55:52.339Z,2.62
2018-06-20T04:58:20.634Z,2.60
2018-06-20T05:00:49.083Z,2.60
2018-06-20T05:03:17.883Z,2.30
2018-06-20T05:05:46.129Z,2.50
2018-06-20T05:08:14.132Z,2.40
2018-06-20T05:10:42.379Z,2.65
2018-06-20T05:13:10.477Z,2.30
2018-06-20T05:15:38.674Z,1.90
2018-06-20T05:18:07.137Z,2.50
2018-06-20T05:20:35.389Z,2.90
2018-06-20T05:23:03.494Z,2.50
2018-06-20T05:25:31.675Z,2.10
2018-06-20T05:27:59.714Z,2.40
2018-06-20T05:30:27.986Z,2.12
2018-06-20T05:32:56.338Z,2.47
2018-06-20T05:35:24.861Z,2.20
2018-06-20T05:37:53.239Z,2.40
2018-06-20T05:40:21.642Z,2.00
2018-06-20T05:42:49.909Z,2.55
2018-06-20T05:45:18.382Z,2.02
2018-06-20T05:47:46.860Z,2.37
2018-06-20T05:50:15.055Z,2.35
2018-06-20T05:52:43.514Z,2.58
2018-06-20T05:55:11.700Z,2.30
2018-06-20T05:57:39.861Z,2.10
2018-06-20T06:00:08.757Z,2.05
2018-06-20T06:02:37.464Z,2.52
2018-06-20T06:05:05.695Z,2.40
2018-06-20T06:07:34.175Z,2.45
2018-06-20T06:10:02.791Z,2.45
2018-06-20T06:12:31.586Z,2.40
2018-06-20T06:14:59.845Z,1.92
2018-06-20T06:17:28.031Z,2.00
2018-06-20T06:19:56.511Z,2.15
2018-06-20T06:22:24.579Z,2.33
2018-06-20T06:24:52.759Z,2.30
2018-06-20T06:27:21.066Z,2.42
2018-06-20T06:29:49.211Z,2.02
2018-06-20T06:32:17.235Z,2.52
2018-06-20T06:34:45.322Z,3.00
2018-06-20T06:37:14.255Z,2.90
2018-06-20T06:39:42.545Z,2.67
2018-06-20T06:42:10.896Z,2.70
2018-06-20T06:44:39.453Z,2.90
2018-06-20T06:47:07.677Z,2.90
2018-06-20T06:49:36.158Z,2.63
2018-06-20T06:52:04.146Z,2.90
2018-06-20T06:54:32.322Z,2.53
2018-06-20T06:57:00.269Z,3.23
2018-06-20T06:59:29.561Z,2.80
2018-06-20T07:01:58.065Z,3.13
2018-06-20T07:04:26.413Z,2.80
2018-06-20T07:06:54.674Z,3.20
2018-06-20T07:09:23.259Z,3.10
2018-06-20T07:11:51.658Z,3.47
2018-06-20T07:14:21.650Z,3.50
2018-06-20T07:16:52.521Z,4.40
2018-06-20T07:19:20.459Z,3.50
2018-06-20T07:21:48.741Z,3.77
2018-06-20T07:24:17.572Z,3.47
2018-06-20T07:26:45.897Z,3.85
2018-06-20T07:29:13.984Z,3.50
2018-06-20T07:31:42.592Z,3.70
2018-06-20T07:34:10.810Z,4.30
2018-06-20T07:36:39.313Z,3.80
2018-06-20T07:39:08.034Z,3.70
2018-06-20T07:41:37.023Z,3.35
2018-06-20T07:44:05.395Z,3.50
2018-06-20T07:46:33.663Z,3.70
2018-06-20T07:49:01.964Z,2.90
2018-06-20T07:51:30.130Z,2.98
2018-06-20T07:53:59.013Z,3.40
2018-06-20T07:56:27.110Z,3.40
2018-06-20T07:58:57.850Z,3.50
2018-06-20T08:01:37.166Z,3.05
2018-06-20T08:04:10.691Z,3.33
2018-06-20T08:06:44.509Z,2.92
2018-06-20T08:09:18.583Z,3.12
2018-06-20T08:11:52.000Z,3.30
2018-06-20T08:14:25.785Z,3.30
2018-06-20T08:16:59.694Z,3.60
2018-06-20T08:19:33.237Z,2.80
2018-06-20T08:22:01.777Z,4.40
2018-06-20T08:24:29.929Z,3.52
2018-06-20T08:26:58.534Z,3.30
2018-06-20T08:29:26.825Z,3.20
2018-06-20T08:31:55.663Z,2.95
2018-06-20T08:34:24.286Z,2.43
2018-06-20T08:36:52.766Z,2.85
2018-06-20T08:39:21.119Z,3.05
2018-06-20T08:41:50.047Z,2.70
2018-06-20T08:44:18.630Z,3.20
2018-06-20T08:46:46.705Z,2.50
2018-06-20T08:49:14.720Z,1.70
2018-06-20T08:51:43.563Z,2.35
2018-06-20T08:54:11.954Z,2.70
2018-06-20T08:56:40.318Z,3.37
2018-06-20T08:59:08.478Z,3.20
2018-06-20T09:01:36.579Z,3.47
2018-06-20T09:05:14.375Z,2.87
2018-06-20T09:07:47.852Z,2.95
2018-06-20T09:10:29.260Z,2.95
2018-06-20T09:13:02.898Z,2.90
2018-06-20T09:15:36.233Z,3.30
2018-06-20T09:18:10.122Z,3.20
2018-06-20T09:20:38.410Z,3.17
2018-06-20T09:23:06.490Z,2.90
2018-06-20T09:25:34.721Z,3.60
2018-06-20T09:28:02.981Z,3.40
2018-06-20T09:30:31.727Z,3.30
2018-06-20T09:33:00.118Z,2.90
2018-06-20T09:35:28.402Z,3.20
2018-06-20T09:37:56.474Z,3.30
2018-06-20T09:40:24.785Z,3.60
2018-06-20T09:42:53.099Z,3.70
2018-06-20T09:45:21.464Z,4.33
2018-06-20T09:47:49.594Z,4.40
2018-06-20T09:50:23.189Z,4.00
2018-06-20T09:52:51.313Z,4.35
2018-06-20T09:55:19.370Z,3.72
2018-06-20T09:57:47.718Z,4.10
2018-06-20T10:00:21.194Z,4.90
2018-06-20T10:02:54.693Z,4.73
2018-06-20T10:05:28.339Z,4.93
2018-06-20T10:08:02.120Z,4.85
2018-06-20T10:10:35.899Z,5.10
2018-06-20T10:13:09.535Z,4.30
2018-06-20T10:15:37.822Z,4.70
2018-06-20T10:18:06.081Z,4.40
2018-06-20T10:20:34.640Z,4.57
2018-06-20T10:23:03.243Z,4.10
2018-06-20T10:25:31.942Z,4.08
2018-06-20T10:28:00.730Z,4.20
2018-06-20T10:30:28.939Z,4.20
2018-06-20T10:32:57.374Z,3.85
2018-06-20T10:35:25.875Z,3.70
2018-06-20T10:37:53.977Z,4.47
2018-06-20T10:40:22.714Z,4.75
2018-06-20T10:42:51.615Z,4.90
2018-06-20T10:45:25.388Z,5.30
2018-06-20T10:47:53.949Z,4.90
2018-06-20T10:50:22.526Z,4.40
2018-06-20T10:52:51.169Z,4.70
2018-06-20T10:55:19.757Z,4.50
2018-06-20T10:57:53.350Z,4.90
2018-06-20T11:00:26.742Z,4.10
2018-06-20T11:03:00.597Z,5.62
2018-06-20T11:05:34.109Z,4.90
2018-06-20T11:08:08.071Z,5.08
2018-06-20T11:10:41.690Z,4.90
2018-06-20T11:13:11.871Z,5.00
2018-06-20T11:15:40.358Z,5.45
2018-06-20T11:18:08.576Z,5.55
2018-06-20T11:20:42.171Z,5.40
2018-06-20T11:23:10.641Z,5.40
2018-06-20T11:25:38.905Z,4.40
2018-06-20T11:28:11.178Z,4.70
2018-06-20T11:30:39.715Z,6.00
2018-06-20T11:33:08.330Z,4.83
2018-06-20T11:35:36.679Z,5.08
2018-06-20T11:38:05.413Z,5.65
2018-06-20T11:40:33.610Z,4.60
2018-06-20T11:43:02.557Z,5.10
2018-06-20T11:45:36.594Z,4.90
2018-06-20T11:48:04.670Z,4.42
2018-06-20T11:50:32.799Z,4.65
2018-06-20T11:53:07.173Z,5.72
2018-06-20T11:55:38.433Z,5.37
2018-06-20T11:58:12.060Z,5.20
2018-06-20T12:00:45.758Z,4.80
2018-06-20T12:03:19.307Z,5.00
2018-06-20T12:05:53.355Z,5.65
2018-06-20T12:08:26.975Z,6.57
2018-06-20T12:11:01.055Z,5.30
2018-06-20T12:13:34.644Z,5.40
2018-06-20T12:16:08.082Z,6.10
2018-06-20T12:18:41.638Z,6.20
2018-06-20T12:21:15.245Z,5.62
2018-06-20T12:23:48.774Z,5.63
2018-06-20T12:26:22.475Z,5.70
2018-06-20T12:28:56.431Z,6.30
2018-06-20T12:31:29.992Z,5.17
2018-06-20T12:34:03.689Z,4.92
2018-06-20T12:36:37.702Z,5.63
2018-06-20T12:39:06.145Z,6.20
2018-06-20T12:41:39.613Z,6.20
2018-06-20T12:44:12.934Z,5.37
2018-06-20T12:46:47.933Z,5.80
2018-06-20T12:49:18.740Z,6.62
2018-06-20T12:51:47.816Z,5.80
2018-06-20T12:54:15.890Z,6.20
2018-06-20T12:56:43.960Z,6.50
2018-06-20T12:59:11.944Z,6.67
2018-06-20T13:01:39.939Z,5.85
2018-06-20T13:04:08.674Z,5.60
2018-06-20T13:06:37.341Z,6.50
2018-06-20T13:09:08.534Z,6.80
2018-06-20T13:11:36.916Z,7.20
2018-06-20T13:14:05.025Z,6.65
2018-06-20T13:16:33.793Z,7.50
2018-06-20T13:19:02.597Z,6.80
2018-06-20T13:21:30.741Z,7.08
2018-06-20T13:23:59.289Z,8.20
2018-06-20T13:26:27.675Z,7.20
2018-06-20T13:28:55.891Z,6.97
2018-06-20T13:31:30.374Z,7.70
2018-06-20T13:34:05.529Z,7.17
2018-06-20T13:36:39.242Z,6.30
2018-06-20T13:39:13.150Z,7.00
2018-06-20T13:41:47.020Z,7.45
2018-06-20T13:44:20.904Z,7.25
2018-06-20T13:46:54.520Z,7.10
2018-06-20T13:49:22.680Z,7.70
2018-06-20T13:51:51.276Z,7.40
2018-06-20T13:54:20.238Z,7.70
2018-06-20T13:56:49.056Z,8.05
2018-06-20T13:59:17.232Z,7.80
2018-06-20T14:01:45.598Z,7.70
2018-06-20T14:04:13.825Z,7.47
2018-06-20T14:06:42.221Z,7.12
2018-06-20T14:09:11.328Z,6.70
2018-06-20T14:11:39.660Z,7.70
2018-06-20T14:14:07.611Z,6.80
2018-06-20T14:16:36.123Z,8.07
2018-06-20T14:19:04.313Z,7.30
2018-06-20T14:21:42.117Z,7.70
2018-06-20T14:24:11.815Z,8.10
2018-06-20T14:26:40.745Z,7.15
2018-06-20T14:29:09.805Z,8.23
2018-06-20T14:31:43.858Z,8.18
2018-06-20T14:34:17.416Z,8.50
2018-06-20T14:36:50.870Z,7.53
2018-06-20T14:39:24.242Z,7.22
2018-06-20T14:41:57.793Z,7.85
2018-06-20T14:44:25.871Z,8.20
2018-06-20T14:46:53.870Z,8.10
2018-06-20T14:49:22.053Z,7.63
2018-06-20T14:51:50.062Z,7.70
2018-06-20T14:54:17.970Z,8.20
2018-06-20T14:56:46.230Z,16.80
2018-06-20T14:59:14.408Z,7.05
2018-06-20T15:01:42.492Z,7.28
2018-06-20T15:04:10.523Z,7.42
2018-06-20T15:06:38.552Z,7.50
2018-06-20T15:09:07.065Z,7.80
2018-06-20T15:11:35.116Z,7.95
2018-06-20T15:14:03.256Z,7.42
2018-06-20T15:16:36.557Z,8.15
2018-06-20T15:19:06.002Z,8.43
2018-06-20T15:21:34.227Z,7.33
2018-06-20T15:24:02.468Z,7.70
2018-06-20T15:26:36.004Z,7.93
2018-06-20T15:29:09.636Z,8.33
2018-06-20T15:31:43.180Z,8.25
2018-06-20T15:34:16.736Z,8.90
2018-06-20T15:36:50.167Z,8.50
2018-06-20T15:39:18.477Z,7.97
2018-06-20T15:41:46.495Z,7.75
2018-06-20T15:44:14.445Z,7.90
2018-06-20T15:46:42.730Z,7.72
2018-06-20T15:49:11.029Z,8.77
2018-06-20T15:51:39.545Z,7.50
2018-06-20T15:54:08.852Z,9.00
2018-06-20T15:56:36.901Z,9.33
2018-06-20T15:59:04.978Z,9.30
2018-06-20T16:01:33.276Z,10.23
2018-06-20T16:04:01.395Z,8.70
2018-06-20T16:06:29.477Z,10.88
2018-06-20T16:09:03.229Z,8.98
2018-06-20T16:11:31.331Z,8.85
2018-06-20T16:13:59.334Z,8.67
2018-06-20T16:16:27.592Z,8.48
2018-06-20T16:19:01.247Z,8.18
2018-06-20T16:21:35.380Z,8.75
2018-06-20T16:24:09.106Z,8.83
2018-06-20T16:26:42.691Z,8.70
2018-06-20T16:29:16.461Z,9.08
2018-06-20T16:31:45.731Z,9.80
2018-06-20T16:34:13.845Z,9.05
2018-06-20T16:36:42.217Z,9.03
2018-06-20T16:39:10.986Z,9.50
2018-06-20T16:41:38.993Z,8.40
2018-06-20T16:44:07.101Z,8.83
2018-06-20T16:46:35.807Z,9.13
2018-06-20T16:49:03.837Z,8.80
2018-06-20T16:51:32.303Z,16.80
2018-06-20T16:54:00.581Z,9.40
2018-06-20T16:56:29.165Z,8.50
2018-06-20T16:58:57.463Z,8.63
2018-06-20T17:01:31.123Z,8.98
2018-06-20T17:03:59.633Z,8.23
2018-06-20T17:06:29.261Z,8.85
2018-06-20T17:08:57.532Z,8.65
2018-06-20T17:11:25.997Z,8.68
2018-06-20T17:13:59.905Z,8.30
2018-06-20T17:16:33.656Z,8.20
2018-06-20T17:19:07.345Z,8.20
2018-06-20T17:21:41.017Z,8.90
2018-06-20T17:24:14.796Z,8.20
2018-06-20T17:26:43.019Z,8.28
2018-06-20T17:29:11.558Z,8.50
2018-06-20T17:31:39.749Z,7.95
2018-06-20T17:34:08.012Z,8.30
2018-06-20T17:36:36.727Z,8.43
2018-06-20T17:39:06.678Z,7.72
2018-06-20T17:41:35.215Z,7.97
2018-06-20T17:44:03.402Z,8.05
2018-06-20T17:46:31.479Z,8.40
2018-06-20T17:49:00.051Z,7.77
2018-06-20T17:51:28.440Z,7.83
2018-06-20T17:53:57.118Z,7.70
2018-06-20T17:56:25.610Z,8.68
2018-06-20T17:58:53.978Z,8.80
2018-06-20T18:01:22.459Z,7.97
2018-06-20T18:03:51.062Z,8.45
2018-06-20T18:06:24.578Z,9.85
2018-06-20T18:08:58.059Z,9.30
2018-06-20T18:11:31.606Z,8.60
2018-06-20T18:14:05.180Z,10.60
2018-06-20T18:16:38.928Z,9.43
2018-06-20T18:19:07.334Z,9.00
2018-06-20T18:21:35.504Z,9.48
2018-06-20T18:24:03.602Z,9.10
2018-06-20T18:26:32.929Z,9.55
2018-06-20T18:29:02.197Z,9.55
2018-06-20T18:31:30.631Z,9.88
2018-06-20T18:33:58.707Z,10.70
2018-06-20T18:36:26.994Z,10.20
2018-06-20T18:38:55.933Z,9.80
2018-06-20T18:41:24.153Z,8.83
2018-06-20T18:43:52.454Z,10.05
2018-06-20T18:46:21.148Z,10.10
2018-06-20T18:48:49.789Z,9.90
2018-06-20T18:51:17.845Z,11.22
2018-06-20T18:53:45.927Z,10.25
2018-06-20T18:56:14.326Z,10.18
2018-06-20T18:58:47.883Z,11.33
2018-06-20T19:01:21.762Z,10.80
2018-06-20T19:03:55.382Z,11.12
2018-06-20T19:06:28.909Z,9.83
2018-06-20T19:09:00.891Z,10.10
2018-06-20T19:11:29.428Z,11.00
2018-06-20T19:13:57.563Z,12.85
2018-06-20T19:16:25.804Z,18.57
2018-06-20T19:18:54.349Z,13.90
2018-06-20T19:21:22.836Z,11.55
2018-06-20T19:23:51.032Z,12.93
2018-06-20T19:26:19.409Z,10.48
2018-06-20T19:28:47.567Z,11.33
2018-06-20T19:31:16.242Z,10.65
2018-06-20T19:33:44.845Z,10.35
2018-06-20T19:36:13.343Z,10.67
2018-06-20T19:38:41.391Z,10.90
2018-06-20T19:41:09.567Z,11.20
2018-06-20T19:43:41.911Z,11.40
2018-06-20T19:46:10.307Z,11.80
2018-06-20T19:48:38.386Z,11.40
2018-06-20T19:51:06.762Z,12.18
2018-06-20T19:53:35.037Z,11.23
2018-06-20T19:56:03.461Z,11.90
2018-06-20T19:58:32.095Z,11.50
2018-06-20T20:01:00.109Z,11.80
2018-06-20T20:03:28.269Z,11.35
2018-06-20T20:05:56.828Z,11.90
2018-06-20T20:08:25.466Z,11.95
2018-06-20T20:10:54.396Z,11.88
2018-06-20T20:13:22.722Z,11.20
2018-06-20T20:15:51.029Z,12.20
2018-06-20T20:18:19.182Z,11.45
2018-06-20T20:20:47.290Z,12.18
2018-06-20T20:23:15.781Z,11.70
2018-06-20T20:25:44.115Z,12.63
2018-06-20T20:28:12.382Z,11.50
2018-06-20T20:30:40.558Z,11.60
2018-06-20T20:33:08.765Z,11.83
2018-06-20T20:35:37.669Z,12.15
2018-06-20T20:38:06.712Z,11.53
2018-06-20T20:40:34.755Z,11.20
2018-06-20T20:43:03.235Z,12.00
2018-06-20T20:45:31.310Z,11.33
2018-06-20T20:47:59.455Z,11.90
2018-06-20T20:50:27.958Z,11.38
2018-06-20T20:52:56.390Z,11.90
2018-06-20T20:55:25.435Z,11.28
2018-06-20T20:57:53.442Z,11.50
2018-06-20T21:00:23.103Z,11.35
2018-06-20T21:02:51.702Z,11.60
2018-06-20T21:05:19.826Z,11.93
2018-06-20T21:07:48.558Z,11.80
2018-06-20T21:10:17.255Z,11.20
2018-06-20T21:12:45.275Z,11.40
2018-06-20T21:15:13.910Z,11.00
2018-06-20T21:17:41.958Z,11.30
2018-06-20T21:20:10.695Z,10.70
2018-06-20T21:22:39.042Z,11.30
2018-06-20T21:25:08.133Z,11.00
2018-06-20T21:27:36.332Z,11.25
2018-06-20T21:30:04.609Z,11.20
2018-06-20T21:32:33.161Z,11.25
2018-06-20T21:35:01.317Z,11.00
2018-06-20T21:37:29.563Z,10.60
2018-06-20T21:39:57.732Z,10.90
2018-06-20T21:42:25.979Z,10.83
2018-06-20T21:44:54.254Z,10.77
2018-06-20T21:47:22.634Z,11.03
2018-06-20T21:49:51.402Z,10.78
2018-06-20T21:52:19.536Z,10.58
2018-06-20T21:54:47.611Z,10.85
2018-06-20T21:57:15.810Z,15.25
2018-06-20T21:59:44.221Z,14.55
2018-06-20T22:02:12.389Z,11.97
2018-06-20T22:04:40.671Z,12.80
2018-06-20T22:07:09.251Z,11.97
2018-06-20T22:09:37.306Z,11.60
2018-06-20T22:12:05.537Z,11.30
2018-06-20T22:14:33.731Z,11.83
2018-06-20T22:17:02.183Z,11.77
2018-06-20T22:19:30.917Z,12.55
2018-06-20T22:21:58.945Z,11.20
2018-06-20T22:24:27.668Z,11.63
2018-06-20T22:26:56.648Z,10.55
2018-06-20T22:29:24.621Z,11.50
2018-06-20T22:31:53.106Z,12.18
2018-06-20T22:34:21.313Z,11.50
2018-06-20T22:36:49.329Z,12.30
2018-06-20T22:39:17.502Z,12.10
2018-06-20T22:41:45.702Z,11.20
2018-06-20T22:44:13.778Z,11.50
2018-06-20T22:46:41.764Z,11.90
2018-06-20T22:49:10.738Z,10.75
2018-06-20T22:51:38.789Z,11.40
2018-06-20T22:54:06.822Z,11.78
2018-06-20T22:56:34.756Z,10.90
2018-06-20T22:59:02.873Z,10.63
2018-06-20T23:01:30.881Z,11.00
2018-06-20T23:03:58.921Z,11.88
2018-06-20T23:06:26.929Z,11.43
2018-06-20T23:08:54.930Z,11.00
2018-06-20T23:11:23.132Z,11.80
2018-06-20T23:13:51.450Z,11.00
2018-06-20T23:16:19.817Z,11.23
2018-06-20T23:18:47.786Z,11.43
2018-06-20T23:21:15.908Z,10.63
2018-06-20T23:23:43.897Z,11.88
2018-06-20T23:26:11.969Z,12.30
2018-06-20T23:28:39.889Z,13.60
2018-06-20T23:31:07.915Z,12.50
2018-06-20T23:33:36.238Z,12.47
2018-06-20T23:36:04.578Z,13.00
2018-06-20T23:38:33.237Z,12.90
2018-06-20T23:41:01.169Z,14.25
2018-06-20T23:43:29.089Z,13.90
2018-06-20T23:46:53.764Z,13.10
2018-06-20T23:49:21.972Z,14.35
2018-06-20T23:51:50.499Z,13.88
2018-06-20T23:54:18.969Z,13.43
2018-06-20T23:56:47.262Z,13.60
2018-06-20T23:59:15.204Z,12.30
